Terminal Aerodrome Forecast
Issued by NWS Wilmington, NC

Home | Current Version | Previous Version | Text Only | Print | Product List | Glossary On
Versions: 1 2 3 4 5 6 7 8 9 10 11 12 13 14 15 16 17 18 19 20 21 22 23 24 25 26 27 28 29 30
138
FTUS42 KILM 010024 CCA
TAFLBT
TAF COR
KLBT 010024Z 0100/0124 10010KT P6SM SCT025 BKN050
     FM010300 11006KT P6SM SCT010 BKN020
     FM010500 12006KT P6SM BKN005 OVC012
     FM011400 18007KT P6SM VCSH BKN010 OVC020
      TEMPO 0114/0118 4SM SHRA=

USA.gov is the U.S. government's official web portal to all federal, state and local government web resources and services.